createdAt,value
2017-11-17T00:00:08.835Z,87.23
2017-11-17T00:00:21.781Z,87.82
2017-11-17T00:00:35.242Z,87.43
2017-11-17T00:00:48.654Z,87.72
2017-11-17T00:01:02.125Z,87.23
2017-11-17T00:01:16.520Z,87.13
2017-11-17T00:01:29.948Z,86.65
2017-11-17T00:01:42.849Z,86.75
2017-11-17T00:01:56.210Z,86.94
2017-11-17T00:02:09.580Z,86.36
2017-11-17T00:02:22.499Z,86.36
2017-11-17T00:02:35.889Z,86.26
2017-11-17T00:02:49.273Z,86.07
2017-11-17T00:03:02.681Z,85.97
2017-11-17T00:03:16.024Z,85.88
2017-11-17T00:03:28.923Z,85.58
2017-11-17T00:03:42.288Z,85.39
2017-11-17T00:03:54.714Z,85.58
2017-11-17T00:04:08.109Z,86.16
2017-11-17T00:04:22.108Z,85.97
2017-11-17T00:04:35.528Z,85.88
2017-11-17T00:04:48.966Z,86.46
2017-11-17T00:05:02.442Z,85.97
2017-11-17T00:05:15.950Z,85.88
2017-11-17T00:05:29.524Z,86.55
2017-11-17T00:05:43.132Z,87.52
2017-11-17T00:05:56.748Z,87.13
2017-11-17T00:06:10.312Z,86.85
2017-11-17T00:06:23.442Z,87.13
2017-11-17T00:06:37.080Z,87.04
2017-11-17T00:06:50.096Z,87.04
2017-11-17T00:07:03.689Z,86.85
2017-11-17T00:07:16.775Z,86.85
2017-11-17T00:07:30.366Z,86.94
2017-11-17T00:07:43.994Z,86.65
2017-11-17T00:07:57.034Z,86.94
2017-11-17T00:08:10.678Z,87.43
2017-11-17T00:08:24.237Z,87.43
2017-11-17T00:08:37.801Z,87.23
2017-11-17T00:08:50.912Z,87.72
2017-11-17T00:09:04.510Z,87.72
2017-11-17T00:09:18.152Z,87.96
2017-11-17T00:09:31.732Z,88.06
2017-11-17T00:09:45.306Z,87.96
2017-11-17T00:09:58.425Z,88.65
2017-11-17T00:10:11.971Z,88.65
2017-11-17T00:10:25.077Z,88.16
2017-11-17T00:10:38.632Z,88.26
2017-11-17T00:10:52.247Z,88.55
2017-11-17T00:11:05.362Z,88.65
2017-11-17T00:11:18.930Z,88.35
2017-11-17T00:11:32.049Z,88.06
2017-11-17T00:11:45.589Z,87.87
2017-11-17T00:11:58.900Z,87.96
2017-11-17T00:12:12.524Z,87.87
2017-11-17T00:12:26.128Z,87.77
2017-11-17T00:12:39.744Z,87.87
2017-11-17T00:12:53.402Z,88.45
2017-11-17T00:13:07.004Z,88.65
2017-11-17T00:13:20.327Z,88.6
2017-11-17T00:13:33.968Z,88.55
2017-11-17T00:13:47.083Z,88.55
2017-11-17T00:13:59.685Z,88.55
2017-11-17T00:14:13.472Z,88.06
2017-11-17T00:14:27.057Z,88.31
2017-11-17T00:14:40.910Z,88.35
2017-11-17T00:14:54.930Z,88.35
2017-11-17T00:15:08.515Z,88.12
2017-11-17T00:15:21.590Z,88.02
2017-11-17T00:15:35.193Z,88.02
2017-11-17T00:15:48.303Z,87.92
2017-11-17T00:16:01.877Z,88.06
2017-11-17T00:16:15.537Z,87.77
2017-11-17T00:16:29.160Z,87.29
2017-11-17T00:16:42.711Z,87.38
2017-11-17T00:16:56.233Z,87.77
2017-11-17T00:17:09.781Z,86.99
2017-11-17T00:17:23.323Z,87.19
2017-11-17T00:17:36.435Z,87.19
2017-11-17T00:17:49.436Z,86.61
2017-11-17T00:18:02.939Z,86.71
2017-11-17T00:18:16.547Z,86.99
2017-11-17T00:18:30.108Z,86.71
2017-11-17T00:18:43.680Z,86.61
2017-11-17T00:18:57.212Z,86.41
2017-11-17T00:19:10.252Z,86.71
2017-11-17T00:19:23.693Z,86.85
2017-11-17T00:19:37.922Z,87.43
2017-11-17T00:19:51.305Z,87.23
2017-11-17T00:20:04.604Z,86.55
2017-11-17T00:20:17.849Z,86.75
2017-11-17T00:20:31.078Z,86.26
2017-11-17T00:20:44.344Z,86.46
2017-11-17T00:20:57.693Z,85.83
2017-11-17T00:21:10.477Z,85.58
2017-11-17T00:21:23.735Z,85.49
2017-11-17T00:21:36.981Z,85.58
2017-11-17T00:21:49.715Z,85.68
2017-11-17T00:22:02.891Z,85.49
2017-11-17T00:22:15.593Z,85
2017-11-17T00:22:28.340Z,85
2017-11-17T00:22:40.565Z,85.39
2017-11-17T00:22:53.229Z,85.39
2017-11-17T00:23:06.353Z,85
2017-11-17T00:23:19.037Z,85.29
2017-11-17T00:23:32.234Z,85.39
2017-11-17T00:23:45.420Z,85.78
2017-11-17T00:23:58.606Z,85.39
2017-11-17T00:24:10.797Z,84.91
2017-11-17T00:24:23.484Z,84.81
2017-11-17T00:24:36.633Z,84.81
2017-11-17T00:24:49.713Z,84.71
2017-11-17T00:25:02.385Z,84.91
2017-11-17T00:25:14.556Z,85.1
2017-11-17T00:25:27.683Z,85.19
2017-11-17T00:25:40.845Z,84.52
2017-11-17T00:25:53.942Z,84.61
2017-11-17T00:26:06.552Z,84.81
2017-11-17T00:26:19.183Z,84.32
2017-11-17T00:26:32.295Z,84.03
2017-11-17T00:26:45.397Z,84.71
2017-11-17T00:26:58.537Z,84.12
2017-11-17T00:27:11.643Z,84.81
2017-11-17T00:27:24.809Z,84.71
2017-11-17T00:27:37.498Z,84.32
2017-11-17T00:27:50.624Z,84.28
2017-11-17T00:28:03.679Z,84.67
2017-11-17T00:28:15.858Z,84.77
2017-11-17T00:28:28.645Z,84.77
2017-11-17T00:28:41.949Z,85.35
2017-11-17T00:28:55.193Z,85.15
2017-11-17T00:29:07.904Z,85.35
2017-11-17T00:29:20.117Z,85.3
2017-11-17T00:29:33.318Z,85.35
2017-11-17T00:29:46.557Z,85.11
2017-11-17T00:29:59.841Z,85.35
2017-11-17T00:30:12.256Z,85.35
2017-11-17T00:30:25.587Z,85.15
2017-11-17T00:30:38.788Z,85.25
2017-11-17T00:30:51.635Z,85.15
2017-11-17T00:31:04.886Z,84.86
2017-11-17T00:31:18.231Z,84.86
2017-11-17T00:31:31.571Z,85.54
2017-11-17T00:31:44.999Z,85.15
2017-11-17T00:31:58.379Z,85.35
2017-11-17T00:32:11.709Z,85.74
2017-11-17T00:32:24.959Z,85.74
2017-11-17T00:32:38.396Z,86.02
2017-11-17T00:32:51.788Z,86.41
2017-11-17T00:33:05.099Z,85.93
2017-11-17T00:33:18.334Z,86.02
2017-11-17T00:33:31.627Z,86.12
2017-11-17T00:33:45.007Z,86.02
2017-11-17T00:33:58.309Z,85.83
2017-11-17T00:34:11.071Z,86.32
2017-11-17T00:34:23.930Z,86.12
2017-11-17T00:34:36.589Z,85.83
2017-11-17T00:34:49.437Z,85.83
2017-11-17T00:35:02.947Z,85.93
2017-11-17T00:35:15.865Z,85.83
2017-11-17T00:35:29.284Z,86.22
2017-11-17T00:35:42.587Z,86.02
2017-11-17T00:35:55.929Z,86.22
2017-11-17T00:36:08.700Z,85.83
2017-11-17T00:36:21.582Z,85.93
2017-11-17T00:36:34.773Z,86.12
2017-11-17T00:36:47.932Z,86.12
2017-11-17T00:37:01.169Z,86.22
2017-11-17T00:37:14.497Z,85.83
2017-11-17T00:37:27.816Z,85.35
2017-11-17T00:37:40.466Z,85.5
2017-11-17T00:37:53.172Z,85.5
2017-11-17T00:38:06.299Z,86.08
2017-11-17T00:38:19.500Z,85.99
2017-11-17T00:38:31.685Z,86.27
2017-11-17T00:38:44.906Z,86.71
2017-11-17T00:38:58.058Z,86.86
2017-11-17T00:39:11.280Z,86.8
2017-11-17T00:39:24.070Z,86.22
2017-11-17T00:39:37.417Z,86.8
2017-11-17T00:39:50.261Z,86.51
2017-11-17T00:40:03.521Z,87.15
2017-11-17T00:40:16.804Z,86.76
2017-11-17T00:40:30.086Z,86.71
2017-11-17T00:40:43.391Z,86.61
2017-11-17T00:40:56.597Z,86.61
2017-11-17T00:41:09.968Z,86.41
2017-11-17T00:41:23.207Z,86.41
2017-11-17T00:41:36.527Z,85.93
2017-11-17T00:41:49.846Z,85.35
2017-11-17T00:42:03.037Z,85.44
2017-11-17T00:42:16.311Z,85.25
2017-11-17T00:42:29.642Z,85.35
2017-11-17T00:42:42.468Z,85.25
2017-11-17T00:42:55.795Z,85.35
2017-11-17T00:43:09.040Z,85.93
2017-11-17T00:43:21.859Z,85.54
2017-11-17T00:43:34.657Z,85.54
2017-11-17T00:43:47.964Z,85.54
2017-11-17T00:44:01.179Z,85.35
2017-11-17T00:44:13.984Z,85.25
2017-11-17T00:44:26.771Z,85.15
2017-11-17T00:44:39.966Z,85.06
2017-11-17T00:44:53.248Z,85.06
2017-11-17T00:45:06.040Z,85.29
2017-11-17T00:45:19.368Z,85.29
2017-11-17T00:45:32.592Z,85.49
2017-11-17T00:45:45.847Z,85
2017-11-17T00:45:58.572Z,85.19
2017-11-17T00:46:11.819Z,85.29
2017-11-17T00:46:24.538Z,85.29
2017-11-17T00:46:37.754Z,85.68
2017-11-17T00:46:50.617Z,84.71
2017-11-17T00:47:03.966Z,84.71
2017-11-17T00:47:17.346Z,84.32
2017-11-17T00:47:30.229Z,84.32
2017-11-17T00:47:43.547Z,84.32
2017-11-17T00:47:56.975Z,85.1
2017-11-17T00:48:10.326Z,84.32
2017-11-17T00:48:23.137Z,85
2017-11-17T00:48:36.609Z,84.71
2017-11-17T00:48:49.433Z,84.36
2017-11-17T00:49:02.741Z,84.32
2017-11-17T00:49:16.152Z,84.52
2017-11-17T00:49:29.449Z,84.56
2017-11-17T00:49:43.494Z,83.97
2017-11-17T00:49:56.938Z,83.97
2017-11-17T00:50:10.203Z,84.36
2017-11-17T00:50:23.488Z,84.07
2017-11-17T00:50:35.769Z,83.97
2017-11-17T00:50:49.074Z,83.97
2017-11-17T00:51:02.432Z,84.17
2017-11-17T00:51:16.109Z,83.97
2017-11-17T00:51:29.580Z,83.59
2017-11-17T00:51:42.944Z,84.07
2017-11-17T00:51:56.208Z,83.97
2017-11-17T00:52:09.702Z,84.27
2017-11-17T00:52:23.181Z,84.56
2017-11-17T00:52:36.552Z,85.43
2017-11-17T00:52:49.924Z,85.53
2017-11-17T00:53:03.366Z,85.92
2017-11-17T00:53:16.869Z,86.07
2017-11-17T00:53:30.346Z,86.36
2017-11-17T00:53:43.759Z,86.26
2017-11-17T00:53:57.300Z,86.85
2017-11-17T00:54:10.796Z,86.65
2017-11-17T00:54:24.189Z,86.65
2017-11-17T00:54:36.722Z,86.65
2017-11-17T00:54:50.117Z,86.55
2017-11-17T00:55:03.627Z,86.65
2017-11-17T00:55:17.002Z,86.85
2017-11-17T00:55:29.903Z,86.75
2017-11-17T00:55:43.392Z,86.46
2017-11-17T00:55:56.827Z,87.33
2017-11-17T00:56:10.478Z,86.75
2017-11-17T00:56:24.057Z,86.85
2017-11-17T00:56:37.449Z,86.85
2017-11-17T00:56:50.881Z,87.43
2017-11-17T00:57:04.346Z,87.23
2017-11-17T00:57:17.924Z,87.29
2017-11-17T00:57:30.894Z,87.19
2017-11-17T00:57:44.459Z,87.09
2017-11-17T00:57:57.720Z,87.38
2017-11-17T00:58:11.193Z,87.19
2017-11-17T00:58:24.147Z,87.19
2017-11-17T00:58:37.606Z,87.23
2017-11-17T00:58:50.602Z,87.29
2017-11-17T00:59:04.092Z,87.33
2017-11-17T00:59:17.100Z,87.29
2017-11-17T00:59:30.511Z,86.75
2017-11-17T00:59:43.677Z,86.65
2017-11-17T00:59:57.074Z,86.55
2017-11-17T01:00:10.083Z,87.33
2017-11-17T01:00:25.027Z,87.23
2017-11-17T01:00:38.474Z,87.23
2017-11-17T01:00:52.056Z,87.72
2017-11-17T01:01:04.461Z,87.72
2017-11-17T01:01:17.481Z,87.13
2017-11-17T01:01:30.430Z,87.43
2017-11-17T01:01:43.260Z,87.33
2017-11-17T01:01:56.618Z,87.23
2017-11-17T01:02:09.978Z,87.23
2017-11-17T01:02:22.787Z,86.65
2017-11-17T01:02:36.225Z,87.04
2017-11-17T01:02:49.717Z,87.33
2017-11-17T01:03:03.159Z,86.65
2017-11-17T01:03:16.560Z,86.75
2017-11-17T01:03:30.080Z,86.75
2017-11-17T01:03:43.128Z,87.04
2017-11-17T01:03:56.039Z,86.89
2017-11-17T01:04:09.553Z,86.94
2017-11-17T01:04:22.525Z,86.85
2017-11-17T01:04:35.002Z,86.36
2017-11-17T01:04:49.498Z,86.46
2017-11-17T01:05:02.418Z,85.97
2017-11-17T01:05:15.973Z,86.21
2017-11-17T01:05:29.702Z,85.58
2017-11-17T01:05:43.159Z,85.68
2017-11-17T01:05:56.659Z,85
2017-11-17T01:06:10.095Z,85.29
2017-11-17T01:06:23.558Z,85.19
2017-11-17T01:06:37.113Z,85.39
2017-11-17T01:06:50.501Z,85.39
2017-11-17T01:07:04.039Z,85
2017-11-17T01:07:17.695Z,85
2017-11-17T01:07:30.931Z,85
2017-11-17T01:07:44.394Z,85
2017-11-17T01:07:57.133Z,84.52
2017-11-17T01:08:09.574Z,85
2017-11-17T01:08:23.059Z,84.61
2017-11-17T01:08:36.457Z,84.52
2017-11-17T01:08:49.445Z,85.1
2017-11-17T01:09:02.886Z,85.1
2017-11-17T01:09:16.318Z,84.91
2017-11-17T01:09:29.129Z,84.91
2017-11-17T01:09:42.605Z,85
2017-11-17T01:09:55.956Z,84.71
2017-11-17T01:10:09.429Z,85.78
2017-11-17T01:10:22.434Z,85.29
2017-11-17T01:10:35.466Z,86.16
2017-11-17T01:10:48.934Z,86.36
2017-11-17T01:11:02.241Z,86.36
2017-11-17T01:11:15.004Z,86.26
2017-11-17T01:11:28.417Z,87.08
2017-11-17T01:11:40.949Z,86.65
2017-11-17T01:11:54.387Z,87.23
2017-11-17T01:12:07.428Z,86.79
2017-11-17T01:12:20.836Z,87.47
2017-11-17T01:12:34.146Z,87.04
2017-11-17T01:12:47.497Z,87.62
2017-11-17T01:13:01.098Z,87.43
2017-11-17T01:13:14.580Z,87.47
2017-11-17T01:13:27.879Z,87.82
2017-11-17T01:13:40.886Z,87.57
2017-11-17T01:13:54.310Z,87.82
2017-11-17T01:14:07.762Z,88.01
2017-11-17T01:14:21.226Z,87.91
2017-11-17T01:14:34.662Z,88.01
2017-11-17T01:14:48.249Z,88.1
2017-11-17T01:15:01.122Z,87.91
2017-11-17T01:15:14.523Z,88.1
2017-11-17T01:15:27.874Z,88.1
2017-11-17T01:15:40.832Z,88.4
2017-11-17T01:15:54.193Z,88.59
2017-11-17T01:16:07.666Z,88.65
2017-11-17T01:16:21.083Z,88.79
2017-11-17T01:16:34.417Z,88.74
2017-11-17T01:16:47.307Z,88.65
2017-11-17T01:17:00.754Z,88.74
2017-11-17T01:17:13.669Z,88.55
2017-11-17T01:17:27.087Z,88.74
2017-11-17T01:17:40.426Z,88.55
2017-11-17T01:17:53.685Z,88.74
2017-11-17T01:18:06.878Z,88.35
2017-11-17T01:18:20.068Z,87.77
2017-11-17T01:18:33.174Z,87.58
2017-11-17T01:18:46.393Z,87.29
2017-11-17T01:18:59.509Z,86.8
2017-11-17T01:19:12.147Z,86.61
2017-11-17T01:19:25.285Z,87.19
2017-11-17T01:19:38.521Z,87.68
2017-11-17T01:19:51.669Z,87.38
2017-11-17T01:20:05.665Z,87.68
2017-11-17T01:20:18.351Z,87.29
2017-11-17T01:20:31.018Z,87.58
2017-11-17T01:20:44.239Z,88.16
2017-11-17T01:20:57.402Z,88.06
2017-11-17T01:21:10.099Z,87.96
2017-11-17T01:21:23.246Z,88.65
2017-11-17T01:21:35.939Z,88.26
2017-11-17T01:21:49.082Z,88.65
2017-11-17T01:22:02.201Z,88.55
2017-11-17T01:22:15.329Z,88.45
2017-11-17T01:22:28.412Z,88.74
2017-11-17T01:22:41.545Z,88.7
2017-11-17T01:22:54.194Z,88.79
2017-11-17T01:23:07.340Z,88.6
2017-11-17T01:23:20.444Z,88.99
2017-11-17T01:23:33.629Z,88.79
2017-11-17T01:23:46.774Z,88.89
2017-11-17T01:23:59.914Z,88.99
2017-11-17T01:24:12.577Z,88.89
2017-11-17T01:24:25.731Z,88.99
2017-11-17T01:24:38.861Z,88.99
2017-11-17T01:24:52.017Z,89.09
2017-11-17T01:25:05.173Z,88.79
2017-11-17T01:25:18.295Z,88.7
2017-11-17T01:25:31.430Z,88.41
2017-11-17T01:25:44.545Z,88.99
2017-11-17T01:25:57.700Z,88.6
2017-11-17T01:26:10.365Z,88.16
2017-11-17T01:26:23.544Z,88.41
2017-11-17T01:26:36.650Z,87.96
2017-11-17T01:26:49.808Z,87.77
2017-11-17T01:27:02.954Z,87.48
2017-11-17T01:27:15.647Z,87.54
2017-11-17T01:27:28.329Z,87.48
2017-11-17T01:27:41.427Z,87.19
2017-11-17T01:27:54.551Z,86.8
2017-11-17T01:28:07.727Z,86.61
2017-11-17T01:28:20.895Z,86.9
2017-11-17T01:28:33.573Z,86.8
2017-11-17T01:28:46.731Z,86.32
2017-11-17T01:28:59.853Z,86.61
2017-11-17T01:29:13.028Z,86.71
2017-11-17T01:29:26.173Z,86.99
2017-11-17T01:29:39.285Z,86.32
2017-11-17T01:29:52.379Z,86.32
2017-11-17T01:30:05.069Z,86.51
2017-11-17T01:30:18.197Z,86.32
2017-11-17T01:30:31.328Z,86.12
2017-11-17T01:30:44.474Z,86.12
2017-11-17T01:30:57.655Z,86.12
2017-11-17T01:31:10.847Z,86.51
2017-11-17T01:31:24.025Z,86.32
2017-11-17T01:31:37.162Z,86.22
2017-11-17T01:31:49.827Z,86.08
2017-11-17T01:32:03.039Z,86.86
2017-11-17T01:32:16.171Z,86.61
2017-11-17T01:32:29.342Z,87.34
2017-11-17T01:32:42.428Z,86.47
2017-11-17T01:32:55.078Z,86.95
2017-11-17T01:33:07.722Z,86.76
2017-11-17T01:33:20.875Z,86.76
2017-11-17T01:33:34.063Z,87.38
2017-11-17T01:33:47.176Z,87.54
2017-11-17T01:34:00.298Z,87.54
2017-11-17T01:34:13.415Z,87.63
2017-11-17T01:34:26.538Z,87.34
2017-11-17T01:34:38.701Z,87.82
2017-11-17T01:34:51.873Z,87.54
2017-11-17T01:35:05.795Z,87.24
2017-11-17T01:35:18.440Z,87.34
2017-11-17T01:35:31.117Z,87.73
2017-11-17T01:35:44.274Z,87.44
2017-11-17T01:35:57.385Z,87.63
2017-11-17T01:36:10.523Z,87.15
2017-11-17T01:36:23.604Z,86.95
2017-11-17T01:36:36.736Z,87.05
2017-11-17T01:36:49.873Z,87.54
2017-11-17T01:37:02.548Z,87.15
2017-11-17T01:37:15.657Z,87.73
2017-11-17T01:37:28.765Z,87.34
2017-11-17T01:37:41.901Z,87.44
2017-11-17T01:37:55.049Z,88.02
2017-11-17T01:38:07.767Z,88.31
2017-11-17T01:38:20.934Z,88.31
2017-11-17T01:38:34.068Z,87.73
2017-11-17T01:38:47.210Z,87.92
2017-11-17T01:39:00.344Z,87.44
2017-11-17T01:39:13.061Z,87.34
2017-11-17T01:39:26.259Z,87.63
2017-11-17T01:39:38.952Z,86.95
2017-11-17T01:39:51.538Z,87.34
2017-11-17T01:40:04.632Z,86.76
2017-11-17T01:40:17.810Z,86.95
2017-11-17T01:40:29.957Z,87.38
2017-11-17T01:40:43.137Z,87.24
2017-11-17T01:40:56.205Z,86.76
2017-11-17T01:41:08.820Z,87.24
2017-11-17T01:41:21.495Z,87.63
2017-11-17T01:41:34.207Z,87.54
2017-11-17T01:41:47.356Z,87.24
2017-11-17T01:42:00.510Z,87.34
2017-11-17T01:42:13.680Z,87.54
2017-11-17T01:42:26.332Z,87.92
2017-11-17T01:42:39.511Z,88.6
2017-11-17T01:42:52.614Z,88.31
2017-11-17T01:43:05.764Z,88.41
2017-11-17T01:43:18.492Z,88.02
2017-11-17T01:43:31.708Z,88.7
2017-11-17T01:43:44.850Z,88.7
2017-11-17T01:43:58.081Z,88.51
2017-11-17T01:44:10.748Z,88.6
2017-11-17T01:44:23.876Z,88.51
2017-11-17T01:44:36.991Z,88.99
2017-11-17T01:44:50.152Z,89.37
2017-11-17T01:45:03.358Z,89.09
2017-11-17T01:45:16.081Z,89.18
2017-11-17T01:45:29.336Z,89.18
2017-11-17T01:45:42.543Z,89.18
2017-11-17T01:45:55.240Z,89.18
2017-11-17T01:46:07.399Z,89.09
2017-11-17T01:46:20.549Z,89.18
2017-11-17T01:46:33.706Z,88.79
2017-11-17T01:46:46.876Z,89.09
2017-11-17T01:47:00.025Z,88.89
2017-11-17T01:47:13.187Z,88.99
2017-11-17T01:47:26.441Z,88.99
2017-11-17T01:47:39.159Z,88.7
2017-11-17T01:47:52.303Z,88.51
2017-11-17T01:48:05.458Z,88.89
2017-11-17T01:48:18.617Z,88.51
2017-11-17T01:48:31.774Z,88.6
2017-11-17T01:48:44.881Z,87.92
2017-11-17T01:48:58.052Z,88.31
2017-11-17T01:49:11.160Z,87.82
2017-11-17T01:49:24.331Z,87.54
2017-11-17T01:49:37.463Z,87.92
2017-11-17T01:49:50.112Z,87.98
2017-11-17T01:50:03.230Z,88.02
2017-11-17T01:50:16.235Z,88.21
2017-11-17T01:50:28.869Z,88.27
2017-11-17T01:50:42.034Z,88.07
2017-11-17T01:50:55.181Z,88.07
2017-11-17T01:51:07.837Z,88.65
2017-11-17T01:51:20.960Z,88.37
2017-11-17T01:51:34.091Z,88.41
2017-11-17T01:51:46.697Z,88.27
2017-11-17T01:51:59.830Z,88.41
2017-11-17T01:52:12.486Z,88.6
2017-11-17T01:52:25.146Z,88.17
2017-11-17T01:52:38.337Z,88.41
2017-11-17T01:52:51.446Z,88.37
2017-11-17T01:53:04.600Z,88.41
2017-11-17T01:53:17.791Z,87.98
2017-11-17T01:53:30.983Z,88.21
2017-11-17T01:53:44.153Z,88.02
2017-11-17T01:53:56.807Z,87.82
2017-11-17T01:54:09.998Z,88.21
2017-11-17T01:54:23.164Z,88.6
2017-11-17T01:54:36.366Z,88.56
2017-11-17T01:54:49.061Z,88.41
2017-11-17T01:55:02.197Z,88.6
2017-11-17T01:55:15.381Z,88.31
2017-11-17T01:55:28.515Z,88.56
2017-11-17T01:55:41.672Z,88.21
2017-11-17T01:55:54.265Z,88.21
2017-11-17T01:56:06.989Z,88.41
2017-11-17T01:56:19.697Z,88.41
2017-11-17T01:56:32.859Z,88.6
2017-11-17T01:56:46.032Z,88.12
2017-11-17T01:56:58.666Z,88.12
2017-11-17T01:57:11.403Z,88.41
2017-11-17T01:57:24.597Z,88.21
2017-11-17T01:57:37.814Z,88.41
2017-11-17T01:57:51.110Z,88.31
2017-11-17T01:58:04.450Z,88.02
2017-11-17T01:58:17.810Z,87.82
2017-11-17T01:58:31.106Z,88.21
2017-11-17T01:58:44.314Z,87.92
2017-11-17T01:58:57.700Z,88.02
2017-11-17T01:59:11.055Z,88.17
2017-11-17T01:59:24.191Z,88.75
2017-11-17T01:59:37.501Z,88.75
2017-11-17T01:59:50.831Z,88.85
2017-11-17T02:00:03.983Z,88.95
2017-11-17T02:00:17.182Z,88.85
2017-11-17T02:00:30.349Z,88.95
2017-11-17T02:00:43.541Z,88.65
2017-11-17T02:00:56.718Z,88.79
2017-11-17T02:01:09.398Z,88.99
2017-11-17T02:01:22.561Z,88.6
2017-11-17T02:01:35.730Z,88.41
2017-11-17T02:01:48.385Z,88.41
2017-11-17T02:02:01.582Z,88.41
2017-11-17T02:02:14.247Z,87.73
2017-11-17T02:02:27.426Z,87.82
2017-11-17T02:02:40.090Z,87.73
2017-11-17T02:02:53.186Z,87.82
2017-11-17T02:03:06.327Z,87.92
2017-11-17T02:03:19.476Z,87.63
2017-11-17T02:03:32.579Z,87.24
2017-11-17T02:03:45.692Z,87.44
2017-11-17T02:03:58.792Z,86.95
2017-11-17T02:04:11.918Z,87.15
2017-11-17T02:04:25.047Z,86.66
2017-11-17T02:04:37.674Z,86.66
2017-11-17T02:04:50.824Z,86.57
2017-11-17T02:05:03.942Z,86.76
2017-11-17T02:05:17.376Z,86.95
2017-11-17T02:05:30.007Z,86.9
2017-11-17T02:05:43.149Z,87.24
2017-11-17T02:05:56.337Z,87.38
2017-11-17T02:06:09.422Z,87.19
2017-11-17T02:06:22.564Z,86.47
2017-11-17T02:06:35.682Z,86.57
2017-11-17T02:06:48.382Z,86.47
2017-11-17T02:07:01.470Z,86.47
2017-11-17T02:07:14.612Z,87.24
2017-11-17T02:07:27.744Z,86.95
2017-11-17T02:07:40.428Z,86.76
2017-11-17T02:07:53.071Z,86.76
2017-11-17T02:08:06.151Z,87.24
2017-11-17T02:08:19.294Z,86.61
2017-11-17T02:08:32.416Z,86.71
2017-11-17T02:08:45.553Z,86.22
2017-11-17T02:08:58.650Z,86.57
2017-11-17T02:09:11.824Z,86.02
2017-11-17T02:09:24.962Z,86.08
2017-11-17T02:09:38.139Z,86.12
2017-11-17T02:09:51.294Z,86.12
2017-11-17T02:10:04.488Z,85.83
2017-11-17T02:10:17.671Z,85.35
2017-11-17T02:10:30.815Z,85.64
2017-11-17T02:10:43.998Z,85.5
2017-11-17T02:10:57.091Z,84.86
2017-11-17T02:11:10.232Z,84.86
2017-11-17T02:11:23.354Z,84.67
2017-11-17T02:11:36.545Z,84.43
2017-11-17T02:11:49.690Z,84.28
2017-11-17T02:12:02.838Z,84.57
2017-11-17T02:12:15.939Z,83.85
2017-11-17T02:12:29.098Z,83.75
2017-11-17T02:12:42.250Z,83.75
2017-11-17T02:12:54.909Z,84.14
2017-11-17T02:13:08.113Z,84.05
2017-11-17T02:13:21.273Z,84.05
2017-11-17T02:13:34.410Z,84.24
2017-11-17T02:13:47.051Z,84.05
2017-11-17T02:13:59.681Z,83.85
2017-11-17T02:14:12.797Z,83.75
2017-11-17T02:14:25.931Z,83.85
2017-11-17T02:14:39.091Z,83.85
2017-11-17T02:14:52.212Z,83.65
2017-11-17T02:15:05.405Z,83.75
2017-11-17T02:15:18.561Z,83.85
2017-11-17T02:15:31.722Z,84.05
2017-11-17T02:15:44.849Z,84.05
2017-11-17T02:15:57.950Z,84.43
2017-11-17T02:16:11.089Z,83.85
2017-11-17T02:16:24.273Z,83.85
2017-11-17T02:16:37.398Z,83.85
2017-11-17T02:16:50.581Z,83.85
2017-11-17T02:17:03.251Z,84.05
2017-11-17T02:17:16.350Z,83.65
2017-11-17T02:17:29.510Z,83.85
2017-11-17T02:17:42.604Z,83.65
2017-11-17T02:17:55.253Z,83.5
2017-11-17T02:18:08.361Z,83.56
2017-11-17T02:18:21.509Z,83.47
2017-11-17T02:18:34.625Z,83.47
2017-11-17T02:18:47.734Z,83.37
2017-11-17T02:19:00.877Z,83.56
2017-11-17T02:19:13.964Z,83.75
2017-11-17T02:19:27.077Z,83.37
2017-11-17T02:19:40.209Z,83.47
2017-11-17T02:19:53.316Z,83.31
2017-11-17T02:20:06.481Z,83.07
2017-11-17T02:20:20.500Z,83.02
2017-11-17T02:20:33.202Z,82.88
2017-11-17T02:20:46.432Z,83.07
2017-11-17T02:20:59.118Z,82.88
2017-11-17T02:21:11.790Z,82.82
2017-11-17T02:21:24.955Z,83.02
2017-11-17T02:21:38.083Z,83.47
2017-11-17T02:21:50.721Z,83.27
2017-11-17T02:22:03.857Z,82.88
2017-11-17T02:22:17.037Z,83.37
2017-11-17T02:22:30.207Z,83.65
2017-11-17T02:22:43.341Z,84.05
2017-11-17T02:22:56.001Z,83.65
2017-11-17T02:23:08.700Z,83.56
2017-11-17T02:23:21.843Z,83.75
2017-11-17T02:23:34.967Z,84.92
2017-11-17T02:23:48.082Z,84.92
2017-11-17T02:24:01.179Z,84.92
2017-11-17T02:24:13.845Z,84.53
2017-11-17T02:24:26.942Z,84.72
2017-11-17T02:24:40.013Z,85.21
2017-11-17T02:24:53.168Z,85.5
2017-11-17T02:25:05.836Z,85.69
2017-11-17T02:25:19.018Z,85.79
2017-11-17T02:25:32.144Z,85.11
2017-11-17T02:25:45.273Z,86.27
2017-11-17T02:25:58.425Z,85.79
2017-11-17T02:26:11.108Z,86.08
2017-11-17T02:26:24.207Z,85.89
2017-11-17T02:26:37.288Z,86.08
2017-11-17T02:26:49.929Z,86.27
2017-11-17T02:27:02.553Z,85.99
2017-11-17T02:27:15.736Z,86.08
2017-11-17T02:27:28.917Z,85.99
2017-11-17T02:27:42.069Z,86.08
2017-11-17T02:27:55.275Z,86.27
2017-11-17T02:28:07.984Z,85.5
2017-11-17T02:28:21.130Z,85.11
2017-11-17T02:28:33.816Z,85.4
2017-11-17T02:28:46.945Z,85.89
2017-11-17T02:29:00.074Z,85.6
2017-11-17T02:29:13.210Z,85.21
2017-11-17T02:29:26.310Z,85.02
2017-11-17T02:29:39.463Z,85.11
2017-11-17T02:29:52.599Z,85.69
2017-11-17T02:30:05.292Z,85.3
2017-11-17T02:30:18.413Z,85.89
2017-11-17T02:30:31.501Z,86.47
2017-11-17T02:30:44.622Z,86.47
2017-11-17T02:30:57.756Z,86.37
2017-11-17T02:31:10.425Z,87.15
2017-11-17T02:31:23.786Z,86.95
2017-11-17T02:31:36.480Z,87.05
2017-11-17T02:31:49.632Z,87.05
2017-11-17T02:32:02.810Z,86.86
2017-11-17T02:32:15.473Z,86.37
2017-11-17T02:32:28.576Z,86.86
2017-11-17T02:32:41.671Z,86.95
2017-11-17T02:32:54.753Z,87.34
2017-11-17T02:33:07.870Z,86.57
2017-11-17T02:33:21.094Z,86.76
2017-11-17T02:33:34.269Z,86.66
2017-11-17T02:33:46.935Z,86.18
2017-11-17T02:34:00.041Z,86.18
2017-11-17T02:34:13.179Z,86.27
2017-11-17T02:34:26.303Z,85.99
2017-11-17T02:34:39.497Z,85.79
2017-11-17T02:34:52.620Z,85.89
2017-11-17T02:35:05.725Z,85.4
2017-11-17T02:35:18.885Z,85.5
2017-11-17T02:35:32.529Z,85.07
2017-11-17T02:35:45.703Z,86.04
2017-11-17T02:35:58.802Z,85.85
2017-11-17T02:36:11.920Z,86.33
2017-11-17T02:36:25.017Z,86.43
2017-11-17T02:36:38.136Z,86.52
2017-11-17T02:36:51.272Z,86.23
2017-11-17T02:37:04.452Z,86.13
2017-11-17T02:37:17.583Z,86.13
2017-11-17T02:37:30.735Z,85.94
2017-11-17T02:37:43.864Z,86.43
2017-11-17T02:37:57.015Z,86.82
2017-11-17T02:38:10.232Z,86.87
2017-11-17T02:38:22.903Z,86.82
2017-11-17T02:38:36.106Z,86.77
2017-11-17T02:38:49.279Z,86.68
2017-11-17T02:39:02.437Z,87.16
2017-11-17T02:39:15.584Z,86.87
2017-11-17T02:39:28.712Z,87.06
2017-11-17T02:39:41.658Z,87.35
2017-11-17T02:39:54.837Z,87.16
2017-11-17T02:40:08.037Z,87.35
2017-11-17T02:40:20.233Z,87.16
2017-11-17T02:40:33.330Z,87.45
2017-11-17T02:40:46.486Z,87.16
2017-11-17T02:40:59.148Z,87.06
2017-11-17T02:41:12.317Z,87.26
2017-11-17T02:41:25.415Z,87.16
2017-11-17T02:41:38.567Z,87.54
2017-11-17T02:41:51.683Z,87.59
2017-11-17T02:42:04.789Z,87.59
2017-11-17T02:42:17.857Z,86.96
2017-11-17T02:42:31.031Z,87.01
2017-11-17T02:42:44.226Z,86.82
2017-11-17T02:42:56.893Z,86.52
2017-11-17T02:43:09.531Z,86.62
2017-11-17T02:43:22.685Z,86.72
2017-11-17T02:43:35.839Z,86.72
2017-11-17T02:43:49.049Z,86.62
2017-11-17T02:44:02.241Z,86.72
2017-11-17T02:44:28.113Z,87.01
2017-11-17T02:44:40.766Z,87.3
2017-11-17T02:44:53.884Z,87.3
2017-11-17T02:45:06.562Z,86.52
2017-11-17T02:45:20.016Z,86.43
2017-11-17T02:45:33.189Z,86.72
2017-11-17T02:45:46.272Z,86.91
2017-11-17T02:45:58.935Z,86.43
2017-11-17T02:46:11.094Z,86.04
2017-11-17T02:46:24.227Z,86.33
2017-11-17T02:46:37.368Z,86.33
2017-11-17T02:46:50.493Z,86.43
2017-11-17T02:47:03.662Z,85.65
2017-11-17T02:47:16.767Z,86.13
2017-11-17T02:47:29.887Z,85.75
2017-11-17T02:47:42.521Z,85.85
2017-11-17T02:47:55.608Z,85.85
2017-11-17T02:48:08.731Z,85.85
2017-11-17T02:48:21.887Z,86.04
2017-11-17T02:48:35.055Z,85.65
2017-11-17T02:48:48.244Z,85.94
2017-11-17T02:49:00.939Z,85.94
2017-11-17T02:49:14.068Z,86.04
2017-11-17T02:49:27.226Z,85.85
2017-11-17T02:49:39.896Z,86.13
2017-11-17T02:49:53.006Z,86.52
2017-11-17T02:50:05.686Z,86.13